createdAt,value
2023-04-15T00:01:28.550Z,8.82
2023-04-15T00:04:14.725Z,8.95
2023-04-15T00:07:02.865Z,8.65
2023-04-15T00:09:49.330Z,8.85
2023-04-15T00:12:35.532Z,8.85
2023-04-15T00:15:22.377Z,8.86
2023-04-15T00:18:09.721Z,8.85
2023-04-15T00:20:56.143Z,8.98
2023-04-15T00:23:42.308Z,9.06
2023-04-15T00:26:29.095Z,9.13
2023-04-15T00:29:16.457Z,9.16
2023-04-15T00:32:02.694Z,9.32
2023-04-15T00:34:50.942Z,9.32
2023-04-15T00:37:37.529Z,9.01
2023-04-15T00:40:26.144Z,8.96
2023-04-15T00:43:12.287Z,8.88
2023-04-15T00:46:00.594Z,9.13
2023-04-15T00:48:47.756Z,9.12
2023-04-15T00:51:36.782Z,8.69
2023-04-15T00:54:23.280Z,8.85
2023-04-15T00:57:09.641Z,8.77
2023-04-15T00:59:57.169Z,8.66
2023-04-15T01:02:43.512Z,8.37
2023-04-15T01:05:31.180Z,8.37
2023-04-15T01:08:18.693Z,8.36
2023-04-15T01:11:05.310Z,8.12
2023-04-15T01:13:52.737Z,8.18
2023-04-15T01:16:41.024Z,8.12
2023-04-15T01:19:27.288Z,8.02
2023-04-15T01:22:13.908Z,7.98
2023-04-15T01:25:08.086Z,8.03
2023-04-15T01:27:55.959Z,7.81
2023-04-15T01:30:42.082Z,7.74
2023-04-15T01:33:28.719Z,7.66
2023-04-15T01:36:15.121Z,7.69
2023-04-15T01:39:01.908Z,7.65
2023-04-15T01:41:48.574Z,7.63
2023-04-15T01:44:37.332Z,7.74
2023-04-15T01:47:23.755Z,7.49
2023-04-15T01:50:10.677Z,7.55
2023-04-15T01:52:57.202Z,7.52
2023-04-15T01:55:44.255Z,7.52
2023-04-15T01:58:31.366Z,7.51
2023-04-15T02:01:20.885Z,7.51
2023-04-15T02:04:08.047Z,7.50
2023-04-15T02:06:54.753Z,7.44
2023-04-15T02:09:41.329Z,7.37
2023-04-15T02:12:28.022Z,7.30
2023-04-15T02:15:14.374Z,7.34
2023-04-15T02:18:02.848Z,7.24
2023-04-15T02:20:49.351Z,7.21
2023-04-15T02:23:35.893Z,7.22
2023-04-15T02:26:23.015Z,7.23
2023-04-15T02:29:09.004Z,7.22
2023-04-15T02:31:55.451Z,7.40
2023-04-15T02:34:43.577Z,7.42
2023-04-15T02:37:31.057Z,7.27
2023-04-15T02:40:18.672Z,7.45
2023-04-15T02:43:06.863Z,7.49
2023-04-15T02:45:53.874Z,7.46
2023-04-15T02:48:40.689Z,7.43
2023-04-15T02:51:32.265Z,7.53
2023-04-15T02:54:18.777Z,7.51
2023-04-15T02:57:06.765Z,7.30
2023-04-15T02:59:53.280Z,7.32
2023-04-15T03:02:42.989Z,7.26
2023-04-15T03:05:29.279Z,7.35
2023-04-15T03:08:17.738Z,7.42
2023-04-15T03:11:03.760Z,7.45
2023-04-15T03:13:50.587Z,7.59
2023-04-15T03:16:46.985Z,7.73
2023-04-15T03:19:36.097Z,7.92
2023-04-15T03:22:22.442Z,7.84
2023-04-15T03:25:10.873Z,7.63
2023-04-15T03:27:58.277Z,7.47
2023-04-15T03:30:44.460Z,7.50
2023-04-15T03:33:31.064Z,7.41
2023-04-15T03:36:17.799Z,7.44
2023-04-15T03:39:04.321Z,7.39
2023-04-15T03:41:51.862Z,7.08
2023-04-15T03:44:38.390Z,7.16
2023-04-15T03:47:24.776Z,7.31
2023-04-15T03:50:11.640Z,7.44
2023-04-15T03:52:57.747Z,7.52
2023-04-15T03:55:44.728Z,7.76
2023-04-15T03:58:32.337Z,7.74
2023-04-15T04:01:18.420Z,7.60
2023-04-15T04:04:04.929Z,7.66
2023-04-15T04:06:51.501Z,7.62
2023-04-15T04:09:39.133Z,7.91
2023-04-15T04:12:25.423Z,7.73
2023-04-15T04:15:13.182Z,7.49
2023-04-15T04:17:59.249Z,7.38
2023-04-15T04:20:45.765Z,7.36
2023-04-15T04:23:32.057Z,7.47
2023-04-15T04:26:18.361Z,7.45
2023-04-15T04:29:04.675Z,7.55
2023-04-15T04:31:52.240Z,7.57
2023-04-15T04:34:42.680Z,7.40
2023-04-15T04:37:28.667Z,7.37
2023-04-15T04:40:14.838Z,7.46
2023-04-15T04:43:01.602Z,7.46
2023-04-15T04:45:47.990Z,7.54
2023-04-15T04:48:35.812Z,7.34
2023-04-15T04:51:22.181Z,7.43
2023-04-15T04:54:08.593Z,7.59
2023-04-15T04:56:55.094Z,7.74
2023-04-15T04:59:41.138Z,7.51
2023-04-15T05:02:28.246Z,7.48
2023-04-15T05:05:16.198Z,7.58
2023-04-15T05:08:02.466Z,7.81
2023-04-15T05:10:48.543Z,7.72
2023-04-15T05:13:34.765Z,7.78
2023-04-15T05:16:21.021Z,7.71
2023-04-15T05:19:07.716Z,7.60
2023-04-15T05:21:55.465Z,7.76
2023-04-15T05:24:41.828Z,7.49
2023-04-15T05:27:28.032Z,7.56
2023-04-15T05:30:14.336Z,7.52
2023-04-15T05:33:00.987Z,7.52
2023-04-15T05:35:47.232Z,7.51
2023-04-15T05:38:34.693Z,7.42
2023-04-15T05:41:20.891Z,7.51
2023-04-15T05:44:07.351Z,7.54
2023-04-15T05:46:53.893Z,7.52
2023-04-15T05:49:40.172Z,7.68
2023-04-15T05:52:26.608Z,7.59
2023-04-15T05:55:15.193Z,7.54
2023-04-15T05:58:01.150Z,7.77
2023-04-15T06:00:47.363Z,8.03
2023-04-15T06:03:34.429Z,7.82
2023-04-15T06:06:21.064Z,7.71
2023-04-15T06:09:07.416Z,7.78
2023-04-15T06:11:56.063Z,7.79
2023-04-15T06:14:42.667Z,7.86
2023-04-15T06:17:28.903Z,7.68
2023-04-15T06:20:16.031Z,7.63
2023-04-15T06:23:02.281Z,7.77
2023-04-15T06:25:48.668Z,8.21
2023-04-15T06:28:36.367Z,8.40
2023-04-15T06:31:22.877Z,8.50
2023-04-15T06:34:09.062Z,8.74
2023-04-15T06:36:55.949Z,9.02
2023-04-15T06:39:42.720Z,9.05
2023-04-15T06:42:29.107Z,9.33
2023-04-15T06:45:17.126Z,9.78
2023-04-15T06:48:03.542Z,9.65
2023-04-15T06:50:50.296Z,9.91
2023-04-15T06:53:41.018Z,10.30
2023-04-15T06:56:27.498Z,10.34
2023-04-15T06:59:14.171Z,10.40
2023-04-15T07:02:06.756Z,10.15
2023-04-15T07:04:52.990Z,10.21
2023-04-15T07:07:39.408Z,10.54
2023-04-15T07:10:26.076Z,10.89
2023-04-15T07:13:12.864Z,10.85
2023-04-15T07:15:59.049Z,10.58
2023-04-15T07:18:46.741Z,10.86
2023-04-15T07:21:33.439Z,10.99
2023-04-15T07:24:20.754Z,11.10
2023-04-15T07:27:07.471Z,11.09
2023-04-15T07:29:53.674Z,11.94
2023-04-15T07:32:40.106Z,11.87
2023-04-15T07:35:29.250Z,11.74
2023-04-15T07:38:15.525Z,12.60
2023-04-15T07:41:01.669Z,12.22
2023-04-15T07:43:48.364Z,12.66
2023-04-15T07:46:34.639Z,12.45
2023-04-15T07:49:21.488Z,12.31
2023-04-15T07:52:09.283Z,12.40
2023-04-15T07:54:55.635Z,12.88
2023-04-15T07:57:41.945Z,12.99
2023-04-15T08:00:28.459Z,12.95
2023-04-15T08:03:15.571Z,13.36
2023-04-15T08:06:02.420Z,13.06
2023-04-15T08:08:50.373Z,13.57
2023-04-15T08:11:37.477Z,13.57
2023-04-15T08:14:25.377Z,13.56
2023-04-15T08:17:11.506Z,13.61
2023-04-15T08:19:57.925Z,13.85
2023-04-15T08:22:43.986Z,13.88
2023-04-15T08:25:31.676Z,13.97
2023-04-15T08:28:18.092Z,14.02
2023-04-15T08:31:04.476Z,13.90
2023-04-15T08:33:53.451Z,14.06
2023-04-15T08:36:39.808Z,14.26
2023-04-15T08:39:26.350Z,14.81
2023-04-15T08:42:18.656Z,14.49
2023-04-15T08:45:06.331Z,14.71
2023-04-15T08:47:56.935Z,14.72
2023-04-15T08:50:43.762Z,14.26
2023-04-15T08:53:31.364Z,14.64
2023-04-15T08:56:18.210Z,14.44
2023-04-15T08:59:06.415Z,14.63
2023-04-15T09:01:54.128Z,14.55
2023-04-15T09:04:40.464Z,14.40
2023-04-15T09:07:27.019Z,14.19
2023-04-15T09:10:14.079Z,14.72
2023-04-15T09:13:00.527Z,14.73
2023-04-15T09:15:48.356Z,14.69
2023-04-15T09:18:36.087Z,14.28
2023-04-15T09:21:23.508Z,14.09
2023-04-15T09:24:09.841Z,14.22
2023-04-15T09:26:59.420Z,14.42
2023-04-15T09:29:45.945Z,14.52
2023-04-15T09:32:33.374Z,14.92
2023-04-15T09:35:19.988Z,14.84
2023-04-15T09:38:09.679Z,14.94
2023-04-15T09:40:56.503Z,14.57
2023-04-15T09:43:43.068Z,14.46
2023-04-15T09:46:43.157Z,14.87
2023-04-15T09:49:30.995Z,15.00
2023-04-15T09:52:17.740Z,15.05
2023-04-15T09:55:04.320Z,14.72
2023-04-15T09:57:50.483Z,14.62
2023-04-15T10:00:38.661Z,14.26
2023-04-15T10:03:27.430Z,14.70
2023-04-15T10:06:16.355Z,14.42
2023-04-15T10:09:03.180Z,14.61
2023-04-15T10:11:51.410Z,14.31
2023-04-15T10:14:39.543Z,14.68
2023-04-15T10:17:31.195Z,14.89
2023-04-15T10:20:20.518Z,14.71
2023-04-15T10:23:10.416Z,14.75
2023-04-15T10:25:59.705Z,14.57
2023-04-15T10:28:47.185Z,14.60
2023-04-15T10:31:33.979Z,14.65
2023-04-15T10:34:20.540Z,15.41
2023-04-15T10:37:10.953Z,15.60
2023-04-15T10:39:58.680Z,15.45
2023-04-15T10:42:45.183Z,15.83
2023-04-15T10:45:34.773Z,15.80
2023-04-15T10:48:21.180Z,15.19
2023-04-15T10:51:07.790Z,15.33
2023-04-15T10:53:58.048Z,15.31
2023-04-15T10:56:46.612Z,15.40
2023-04-15T10:59:34.011Z,15.85
2023-04-15T11:02:20.100Z,15.78
2023-04-15T11:05:07.323Z,16.26
2023-04-15T11:07:56.061Z,15.82
2023-04-15T11:10:56.188Z,15.82
2023-04-15T11:13:50.830Z,15.99
2023-04-15T11:16:44.925Z,15.67
2023-04-15T11:19:37.681Z,15.26
2023-04-15T11:22:24.858Z,15.60
2023-04-15T11:25:11.422Z,16.11
2023-04-15T11:27:58.500Z,15.09
2023-04-15T11:30:46.573Z,15.77
2023-04-15T11:33:33.176Z,15.83
2023-04-15T11:36:20.009Z,16.11
2023-04-15T11:39:08.676Z,15.89
2023-04-15T11:41:55.376Z,15.97
2023-04-15T11:44:41.521Z,15.70
2023-04-15T11:47:29.107Z,15.07
2023-04-15T11:50:16.888Z,15.09
2023-04-15T11:53:06.892Z,15.42
2023-04-15T11:55:57.184Z,16.24
2023-04-15T11:58:44.661Z,15.37
2023-04-15T12:01:35.075Z,15.01
2023-04-15T12:04:25.395Z,15.43
2023-04-15T12:07:12.777Z,15.31
2023-04-15T12:09:59.857Z,15.06
2023-04-15T12:12:51.452Z,15.96
2023-04-15T12:15:39.806Z,16.19
2023-04-15T12:18:26.611Z,15.52
2023-04-15T12:21:15.389Z,15.94
2023-04-15T12:24:04.819Z,15.96
2023-04-15T12:26:52.953Z,15.49
2023-04-15T12:29:41.682Z,14.67
2023-04-15T12:32:28.231Z,14.52
2023-04-15T12:35:14.546Z,15.58
2023-04-15T12:38:02.049Z,15.31
2023-04-15T12:40:48.466Z,14.91
2023-04-15T12:43:34.983Z,15.34
2023-04-15T12:46:21.681Z,14.80
2023-04-15T12:49:08.240Z,14.81
2023-04-15T12:51:56.166Z,14.49
2023-04-15T12:54:43.825Z,14.95
2023-04-15T12:57:33.062Z,14.95
2023-04-15T13:00:19.583Z,14.92
2023-04-15T13:03:07.210Z,14.49
2023-04-15T13:05:57.773Z,14.39
2023-04-15T13:08:57.505Z,14.75
2023-04-15T13:11:50.978Z,15.02
2023-04-15T13:14:37.394Z,14.82
2023-04-15T13:17:23.476Z,15.09
2023-04-15T13:20:10.723Z,15.30
2023-04-15T13:23:01.397Z,14.69
2023-04-15T13:25:47.874Z,14.78
2023-04-15T13:28:37.892Z,14.32
2023-04-15T13:31:25.530Z,14.50
2023-04-15T13:34:11.720Z,14.65
2023-04-15T13:36:57.843Z,15.00
2023-04-15T13:39:43.948Z,14.42
2023-04-15T13:42:29.885Z,14.25
2023-04-15T13:45:20.730Z,14.06
2023-04-15T13:48:07.399Z,14.27
2023-04-15T13:50:53.830Z,13.94
2023-04-15T13:53:40.505Z,13.96
2023-04-15T13:56:27.248Z,14.26
2023-04-15T13:59:14.211Z,14.69
2023-04-15T14:02:02.083Z,14.16
2023-04-15T14:04:48.765Z,14.07
2023-04-15T14:07:35.283Z,14.06
2023-04-15T14:10:21.786Z,14.49
2023-04-15T14:13:08.354Z,14.05
2023-04-15T14:15:54.708Z,14.01
2023-04-15T14:18:42.520Z,13.56
2023-04-15T14:21:29.943Z,14.05
2023-04-15T14:24:16.578Z,13.97
2023-04-15T14:27:03.193Z,13.28
2023-04-15T14:29:49.634Z,13.58
2023-04-15T14:32:36.240Z,13.67
2023-04-15T14:35:24.487Z,13.70
2023-04-15T14:38:11.520Z,12.96
2023-04-15T14:40:58.326Z,13.13
2023-04-15T14:43:44.885Z,12.98
2023-04-15T14:46:31.299Z,12.92
2023-04-15T14:49:17.490Z,12.49
2023-04-15T14:52:05.576Z,12.28
2023-04-15T14:54:52.897Z,12.27
2023-04-15T14:57:39.944Z,12.60
2023-04-15T15:00:25.948Z,12.65
2023-04-15T15:03:13.893Z,12.43
2023-04-15T15:06:00.548Z,12.16
2023-04-15T15:08:48.550Z,12.31
2023-04-15T15:11:34.923Z,13.02
2023-04-15T15:14:21.735Z,12.96
2023-04-15T15:17:08.624Z,12.42
2023-04-15T15:19:54.824Z,12.55
2023-04-15T15:22:41.332Z,12.61
2023-04-15T15:25:29.398Z,12.79
2023-04-15T15:28:15.801Z,12.74
2023-04-15T15:31:02.223Z,12.36
2023-04-15T15:33:48.660Z,12.46
2023-04-15T15:36:34.693Z,11.80
2023-04-15T15:39:21.234Z,12.03
2023-04-15T15:42:08.818Z,11.87
2023-04-15T15:44:55.148Z,11.96
2023-04-15T15:47:42.110Z,11.46
2023-04-15T15:50:28.328Z,11.33
2023-04-15T15:53:18.004Z,11.51
2023-04-15T15:56:06.037Z,11.40
2023-04-15T15:58:53.801Z,11.48
2023-04-15T16:01:40.166Z,11.05
2023-04-15T16:04:26.848Z,11.33
2023-04-15T16:07:14.524Z,11.36
2023-04-15T16:10:00.894Z,11.37
2023-04-15T16:12:47.380Z,11.57
2023-04-15T16:15:35.360Z,11.45
2023-04-15T16:18:21.989Z,11.47
2023-04-15T16:21:08.442Z,11.40
2023-04-15T16:23:54.944Z,11.82
2023-04-15T16:26:41.536Z,11.94
2023-04-15T16:29:27.906Z,11.65
2023-04-15T16:32:16.703Z,11.55
2023-04-15T16:35:04.169Z,11.15
2023-04-15T16:37:50.486Z,11.44
2023-04-15T16:40:38.217Z,11.58
2023-04-15T16:43:24.311Z,11.22
2023-04-15T16:46:10.871Z,11.36
2023-04-15T16:48:58.522Z,11.43
2023-04-15T16:51:45.015Z,11.26
2023-04-15T16:54:33.445Z,11.38
2023-04-15T16:57:19.919Z,11.42
2023-04-15T17:00:07.602Z,11.38
2023-04-15T17:02:54.245Z,11.41
2023-04-15T17:05:42.732Z,11.42
2023-04-15T17:08:28.996Z,11.03
2023-04-15T17:11:16.278Z,11.10
2023-04-15T17:14:03.438Z,10.88
2023-04-15T17:16:49.813Z,10.81
2023-04-15T17:19:36.131Z,10.92
2023-04-15T17:22:24.019Z,10.55
2023-04-15T17:25:10.751Z,10.36
2023-04-15T17:27:56.978Z,10.40
2023-04-15T17:30:43.259Z,10.24
2023-04-15T17:34:00.200Z,10.43
2023-04-15T17:41:00.814Z,10.25
2023-04-15T17:43:47.206Z,10.35
2023-04-15T17:46:33.614Z,10.12
2023-04-15T17:49:19.778Z,10.04
2023-04-15T17:52:06.346Z,9.91
2023-04-15T17:54:52.804Z,10.28
2023-04-15T17:57:40.702Z,10.30
2023-04-15T18:00:26.798Z,9.89
2023-04-15T18:03:13.302Z,10.20
2023-04-15T18:06:00.604Z,10.19
2023-04-15T18:08:47.176Z,10.38
2023-04-15T18:11:34.189Z,10.33
2023-04-15T18:14:33.709Z,10.19
2023-04-15T18:17:21.172Z,10.04
2023-04-15T18:20:08.613Z,9.94
2023-04-15T18:22:55.720Z,10.08
2023-04-15T18:25:43.488Z,9.99
2023-04-15T18:28:31.169Z,9.91
2023-04-15T18:31:18.670Z,10.02
2023-04-15T18:34:07.260Z,9.87
2023-04-15T19:00:26.695Z,9.82
2023-04-15T19:11:59.256Z,9.19
2023-04-15T19:14:45.666Z,9.01
2023-04-15T19:39:06.121Z,8.89
2023-04-15T19:41:55.293Z,8.93
2023-04-15T19:44:42.898Z,8.89
2023-04-15T19:58:35.362Z,8.69
2023-04-15T20:01:22.080Z,8.74
2023-04-15T20:04:08.686Z,8.81
2023-04-15T20:06:55.647Z,8.52
2023-04-15T20:09:43.736Z,8.50
2023-04-15T20:12:50.674Z,8.45
2023-04-15T20:15:38.353Z,8.54
2023-04-15T20:18:28.150Z,8.40
2023-04-15T20:21:14.370Z,8.43
2023-04-15T20:24:00.452Z,8.40
2023-04-15T20:26:47.059Z,8.46
2023-04-15T20:29:33.506Z,8.43
2023-04-15T20:32:21.395Z,8.35
2023-04-15T20:35:08.751Z,8.38
2023-04-15T20:37:55.340Z,8.31
2023-04-15T20:40:45.641Z,8.42
2023-04-15T20:43:32.118Z,8.42
2023-04-15T20:50:43.961Z,8.26
2023-04-15T20:53:29.941Z,8.38
2023-04-15T20:56:16.131Z,8.39
2023-04-15T20:59:02.800Z,8.57
2023-04-15T21:01:49.264Z,8.32
2023-04-15T21:04:35.862Z,8.31
2023-04-15T21:07:23.615Z,8.38
2023-04-15T21:10:10.590Z,8.63
2023-04-15T21:12:57.026Z,8.49
2023-04-15T21:15:43.152Z,8.53
2023-04-15T21:18:29.318Z,8.44
2023-04-15T21:21:15.912Z,8.59
2023-04-15T21:24:03.509Z,8.34
2023-04-15T21:26:49.639Z,8.47
2023-04-15T21:29:35.815Z,8.48
2023-04-15T21:32:22.100Z,8.45
2023-04-15T21:35:09.376Z,8.41
2023-04-15T21:37:55.950Z,8.46
2023-04-15T21:40:43.484Z,8.36
2023-04-15T21:43:29.961Z,8.95
2023-04-15T21:46:24.381Z,8.50
2023-04-15T21:49:11.912Z,8.57
2023-04-15T21:52:01.122Z,8.47
2023-04-15T21:54:47.782Z,8.45
2023-04-15T21:57:35.466Z,8.50
2023-04-15T22:00:23.012Z,8.51
2023-04-15T22:03:09.549Z,8.61
2023-04-15T22:06:00.120Z,8.35
2023-04-15T22:08:56.292Z,8.65
2023-04-15T22:11:53.053Z,8.60
2023-04-15T22:14:40.478Z,8.57
2023-04-15T22:17:27.542Z,8.68
2023-04-15T22:20:14.285Z,8.65
2023-04-15T22:23:00.446Z,8.76
2023-04-15T22:25:47.521Z,8.71
2023-04-15T22:28:33.844Z,8.72
2023-04-15T22:31:21.237Z,8.66
2023-04-15T22:34:08.497Z,8.66
2023-04-15T22:36:55.062Z,8.64
2023-04-15T22:39:41.414Z,8.49
2023-04-15T22:42:27.771Z,8.72
2023-04-15T22:45:13.940Z,8.80
2023-04-15T22:48:02.485Z,8.80
2023-04-15T22:50:49.284Z,8.87
2023-04-15T22:53:35.402Z,8.83
2023-04-15T22:56:21.908Z,8.74
2023-04-15T22:59:08.293Z,8.88
2023-04-15T23:01:54.665Z,8.86
2023-04-15T23:04:42.309Z,8.95
2023-04-15T23:07:28.815Z,8.82
2023-04-15T23:10:14.793Z,8.96
2023-04-15T23:13:01.070Z,8.92
2023-04-15T23:15:47.388Z,8.78
2023-04-15T23:18:33.873Z,8.77
2023-04-15T23:21:22.471Z,8.76
2023-04-15T23:24:09.993Z,8.67
2023-04-15T23:26:57.170Z,8.83
2023-04-15T23:29:43.172Z,8.75
2023-04-15T23:32:29.503Z,8.90
2023-04-15T23:35:15.889Z,8.75
2023-04-15T23:38:03.641Z,8.84
2023-04-15T23:40:51.851Z,8.75
2023-04-15T23:43:38.086Z,8.72
2023-04-15T23:46:24.139Z,8.96
2023-04-15T23:49:10.534Z,8.95
2023-04-15T23:51:57.451Z,8.90
2023-04-15T23:54:44.923Z,9.01
2023-04-15T23:57:31.037Z,8.92
